Time;durP1;ratioP1;P1;durP2;ratioP2;P2;SDS_P1;SDS_P2;PMS_P1;PMS_P2;Temp;Humidity;BMP_temperature;BMP_pressure;BME280_temperature;BME280_humidity;BME280_pressure;Samples;Min_cycle;Max_cycle;Signal;HPM_P1;HPM_P2
2022/06/18 00:00:46;;;;;;;1.35;1.15;;;;;;;20.41;36.01;96231.84;4938531;29;20174;-79
2022/06/18 00:03:11;;;;;;;1.20;1.10;;;;;;;20.33;35.98;96231.00;4953800;28;20205;-79
2022/06/18 00:05:37;;;;;;;1.20;1.10;;;;;;;20.24;36.05;96232.16;4953931;29;20247;-79
2022/06/18 00:08:04;;;;;;;3.08;1.40;;;;;;;20.14;36.86;96236.91;4938395;29;20264;-79
2022/06/18 00:10:30;;;;;;;1.27;1.15;;;;;;;20.05;37.35;96233.63;4919460;29;20253;-79
2022/06/18 00:15:48;;;;;;;1.33;1.20;;;;;;;19.93;38.10;96226.41;4935224;29;20204;-79
2022/06/18 00:18:14;;;;;;;2.75;1.20;;;;;;;19.86;38.10;96230.78;4937272;29;20186;-79
2022/06/18 00:20:40;;;;;;;3.20;1.40;;;;;;;19.79;38.69;96223.66;4935587;29;20187;-79
2022/06/18 00:23:06;;;;;;;1.05;1.00;;;;;;;19.80;38.21;96224.47;4920125;29;20719;-79
2022/06/18 00:25:36;;;;;;;1.77;1.20;;;;;;;19.78;38.81;96223.81;4934670;29;20248;-78
2022/06/18 00:28:04;;;;;;;1.95;1.65;;;;;;;19.90;38.94;96224.97;4944437;28;20658;-79
2022/06/18 00:30:30;;;;;;;1.55;1.40;;;;;;;19.89;38.93;96225.97;4938267;29;20224;-79
2022/06/18 00:32:55;;;;;;;2.72;1.60;;;;;;;19.91;38.86;96217.88;4938546;29;20177;-79
2022/06/18 00:35:21;;;;;;;1.98;1.63;;;;;;;19.87;39.23;96222.69;4937516;29;20735;-79
2022/06/18 00:37:55;;;;;;;1.73;1.40;;;;;;;19.83;39.43;96216.16;4954191;28;20636;-78
2022/06/18 00:40:31;;;;;;;1.40;1.30;;;;;;;19.83;39.18;96218.81;4922804;29;20211;-79
2022/06/18 00:43:04;;;;;;;1.45;1.35;;;;;;;19.75;39.98;96214.47;4956083;29;20553;-78
2022/06/18 00:45:30;;;;;;;1.77;1.52;;;;;;;19.69;40.12;96209.13;4955393;28;20201;-79
2022/06/18 00:48:17;;;;;;;1.48;1.38;;;;;;;19.73;39.87;96211.22;4941807;29;20224;-78
2022/06/18 00:50:54;;;;;;;1.70;1.40;;;;;;;19.72;40.49;96212.22;4965437;28;20189;-79
2022/06/18 00:53:24;;;;;;;1.45;1.35;;;;;;;19.67;40.53;96209.31;4957251;28;20273;-79
2022/06/18 00:55:54;;;;;;;1.95;1.70;;;;;;;19.58;40.99;96209.63;4936929;29;20181;-79
2022/06/18 00:58:31;;;;;;;1.60;1.50;;;;;;;19.58;41.32;96210.44;4937092;29;20189;-78
2022/06/18 01:00:57;;;;;;;2.00;1.80;;;;;;;19.60;41.44;96212.91;4936829;29;20613;-78
2022/06/18 01:03:22;;;;;;;1.73;1.63;;;;;;;19.58;41.54;96207.00;4951715;28;20263;-77
2022/06/18 01:05:47;;;;;;;1.85;1.75;;;;;;;19.49;41.93;96207.09;4952695;29;20576;-78
2022/06/18 01:08:18;;;;;;;2.10;1.90;;;;;;;19.64;41.67;96211.53;4934900;29;20216;-77
2022/06/18 01:10:48;;;;;;;4.93;1.65;;;;;;;19.62;42.32;96198.56;4952099;29;20264;-78
2022/06/18 01:13:17;;;;;;;3.35;2.00;;;;;;;19.58;41.98;96199.09;4936417;29;20318;-78
2022/06/18 01:15:44;;;;;;;2.08;1.85;;;;;;;19.60;42.32;96197.09;4954204;28;20269;-79
2022/06/18 01:18:11;;;;;;;2.60;1.90;;;;;;;19.59;42.09;96192.81;4940505;29;20240;-78
2022/06/18 01:20:41;;;;;;;2.78;1.83;;;;;;;19.58;42.46;96189.38;4955928;29;20208;-79
2022/06/18 01:23:11;;;;;;;3.25;1.88;;;;;;;19.55;42.51;96196.81;4921021;29;20216;-78
2022/06/18 01:25:37;;;;;;;2.85;2.03;;;;;;;19.44;42.82;96188.41;4936505;29;20522;-79
2022/06/18 01:28:03;;;;;;;2.00;1.88;;;;;;;19.41;43.07;96180.06;4937849;29;20197;-79
2022/06/18 01:30:36;;;;;;;2.38;2.17;;;;;;;19.42;42.86;96184.31;4921957;29;20240;-79
2022/06/18 01:33:06;;;;;;;2.13;1.80;;;;;;;19.36;43.27;96185.91;4937984;29;20899;-79
2022/06/18 01:35:31;;;;;;;2.95;1.70;;;;;;;19.39;43.04;96185.50;4936878;29;20184;-79
2022/06/18 01:37:57;;;;;;;1.67;1.58;;;;;;;19.45;42.71;96182.13;4921864;29;20181;-79
2022/06/18 01:40:39;;;;;;;2.60;2.20;;;;;;;19.42;42.72;96179.88;4921073;29;20388;-79
2022/06/18 01:43:06;;;;;;;1.83;1.73;;;;;;;19.34;42.53;96172.06;4936807;29;20678;-79
2022/06/18 01:45:33;;;;;;;2.45;1.85;;;;;;;19.39;42.65;96169.72;4936484;29;20182;-79
2022/06/18 01:48:03;;;;;;;2.15;1.95;;;;;;;19.39;42.37;96171.53;4937110;29;20181;-78
2022/06/18 01:50:33;;;;;;;2.25;1.70;;;;;;;19.42;42.18;96164.06;4921043;29;20204;-79
2022/06/18 01:53:07;;;;;;;3.13;1.77;;;;;;;19.39;42.29;96164.44;4920770;29;20264;-79
2022/06/18 01:55:36;;;;;;;3.63;1.88;;;;;;;19.41;42.34;96154.53;4936184;29;20182;-80
2022/06/18 01:58:05;;;;;;;1.85;1.75;;;;;;;19.28;42.66;96158.88;4921007;29;20202;-79
2022/06/18 02:00:31;;;;;;;2.05;1.83;;;;;;;19.29;42.52;96161.31;4936813;29;20201;-79
2022/06/18 02:03:01;;;;;;;1.80;1.70;;;;;;;19.29;42.57;96153.41;4920576;29;20725;-80
2022/06/18 02:05:27;;;;;;;2.88;1.63;;;;;;;19.31;42.51;96150.59;4920860;29;20218;-79
2022/06/18 02:07:53;;;;;;;2.50;1.90;;;;;;;19.33;42.31;96151.19;4935846;29;20190;-80
2022/06/18 02:10:39;;;;;;;2.10;1.90;;;;;;;19.29;42.24;96142.06;4952691;28;20201;-79
2022/06/18 02:13:05;;;;;;;1.83;1.73;;;;;;;19.24;42.53;96132.88;4936617;29;20213;-79
2022/06/18 02:15:35;;;;;;;3.35;1.77;;;;;;;19.20;42.71;96136.91;4920772;29;20197;-79
2022/06/18 02:18:05;;;;;;;3.08;1.80;;;;;;;19.17;43.03;96141.72;4936921;29;20185;-80
2022/06/18 02:20:35;;;;;;;2.78;1.77;;;;;;;19.16;42.74;96130.38;4936938;29;20602;-79
2022/06/18 02:23:00;;;;;;;2.38;2.00;;;;;;;19.09;43.11;96123.44;4937632;29;20206;-79
2022/06/18 02:25:27;;;;;;;3.65;2.00;;;;;;;19.11;43.00;96127.50;4936806;29;20609;-79
2022/06/18 02:27:58;;;;;;;2.00;1.90;;;;;;;19.05;43.89;96136.13;4937108;29;20206;-79
2022/06/18 02:30:26;;;;;;;1.92;1.83;;;;;;;19.12;43.02;96138.84;4921261;29;20265;-79
2022/06/18 02:33:29;;;;;;;1.85;1.70;;;;;;;19.11;42.98;96126.69;4905188;29;20209;-79
2022/06/18 02:36:10;;;;;;;2.10;2.00;;;;;;;19.06;43.07;96118.53;4937231;29;20182;-79
2022/06/18 02:38:36;;;;;;;3.58;1.63;;;;;;;19.06;43.22;96126.41;4936684;29;20208;-79
2022/06/18 02:41:01;;;;;;;2.03;1.73;;;;;;;19.06;43.65;96131.69;4936601;29;20178;-79
2022/06/18 02:43:26;;;;;;;1.63;1.52;;;;;;;19.09;43.12;96123.44;4938214;29;20230;-79
2022/06/18 02:45:53;;;;;;;2.20;1.85;;;;;;;19.13;43.02;96133.38;4935958;29;20229;-79
2022/06/18 02:48:23;;;;;;;3.08;1.75;;;;;;;19.12;43.09;96128.31;4936160;29;20650;-80
2022/06/18 02:50:48;;;;;;;2.17;1.73;;;;;;;19.02;43.69;96127.81;4920605;29;20194;-78
2022/06/18 02:53:14;;;;;;;2.63;1.77;;;;;;;19.02;43.44;96127.81;4920339;29;20233;-79
2022/06/18 02:55:43;;;;;;;2.88;1.70;;;;;;;18.95;43.97;96125.91;4935336;29;20238;-79
2022/06/18 02:58:24;;;;;;;1.85;1.75;;;;;;;18.91;43.88;96129.91;4920318;29;20182;-79
2022/06/18 03:00:53;;;;;;;1.83;1.73;;;;;;;18.83;44.11;96122.13;4951808;29;20233;-79
2022/06/18 03:03:20;;;;;;;1.83;1.45;;;;;;;18.78;44.58;96121.84;4936097;29;20210;-79
2022/06/18 03:05:45;;;;;;;2.53;1.50;;;;;;;18.71;44.75;96115.69;4935050;29;20273;-79
2022/06/18 03:08:11;;;;;;;1.50;1.40;;;;;;;18.66;44.82;96128.59;4934946;29;20205;-79
2022/06/18 03:13:20;;;;;;;1.83;1.73;;;;;;;18.70;44.81;96121.97;4936090;29;20229;-79
2022/06/18 03:15:47;;;;;;;1.88;1.77;;;;;;;18.64;44.90;96122.66;4919447;29;20182;-80
2022/06/18 03:18:14;;;;;;;2.58;1.80;;;;;;;18.70;44.68;96116.69;4935897;29;20174;-79
2022/06/18 03:20:54;;;;;;;2.78;2.10;;;;;;;18.76;44.22;96123.88;4919636;29;20729;-79
2022/06/18 03:23:23;;;;;;;3.75;1.60;;;;;;;18.82;44.01;96128.41;4936925;29;20296;-79
2022/06/18 03:25:48;;;;;;;2.08;1.88;;;;;;;18.85;43.92;96127.22;4919463;29;20182;-79
2022/06/18 03:28:14;;;;;;;2.10;1.85;;;;;;;18.93;43.40;96130.53;4919610;29;20245;-79
2022/06/18 03:30:40;;;;;;;3.80;1.90;;;;;;;18.98;43.33;96126.53;4936804;29;20635;-79
2022/06/18 03:33:06;;;;;;;1.95;1.85;;;;;;;18.98;43.35;96131.78;4935347;29;20186;-79
2022/06/18 03:35:31;;;;;;;2.45;1.75;;;;;;;19.05;42.83;96130.88;4936386;29;20541;-79
2022/06/18 03:37:56;;;;;;;2.97;1.90;;;;;;;19.10;42.99;96131.13;4919171;29;20178;-78
2022/06/18 03:40:22;;;;;;;3.28;1.50;;;;;;;19.20;42.32;96130.84;4920132;29;20202;-79
2022/06/18 03:42:47;;;;;;;1.90;1.77;;;;;;;19.24;42.80;96139.97;4936193;29;20484;-79
2022/06/18 03:45:12;;;;;;;1.92;1.58;;;;;;;19.37;42.43;96148.03;4934943;29;20551;-79
2022/06/18 03:47:38;;;;;;;2.08;1.30;;;;;;;19.53;41.77;96146.97;4919267;29;20660;-79
2022/06/18 03:50:04;;;;;;;1.98;1.80;;;;;;;19.71;41.66;96155.25;4937526;29;20225;-78
2022/06/18 03:52:30;;;;;;;1.73;1.63;;;;;;;19.82;41.10;96145.22;4942560;29;20185;-79
2022/06/18 03:54:55;;;;;;;1.60;1.50;;;;;;;20.01;40.97;96150.63;4958948;28;20174;-79
2022/06/18 03:57:20;;;;;;;2.90;1.50;;;;;;;20.58;39.27;96152.25;4959140;28;20237;-78
2022/06/18 03:59:46;;;;;;;2.67;1.77;;;;;;;20.90;38.66;96155.22;4940654;29;20210;-79
2022/06/18 04:02:13;;;;;;;2.65;1.60;;;;;;;21.11;38.40;96155.09;4926843;29;20217;-79
2022/06/18 04:04:38;;;;;;;3.45;1.60;;;;;;;21.40;37.80;96155.81;4922859;29;20209;-79
2022/06/18 04:07:05;;;;;;;2.00;1.80;;;;;;;21.77;36.99;96149.16;4935900;29;20178;-80
2022/06/18 04:09:31;;;;;;;1.50;1.40;;;;;;;22.07;36.29;96157.50;4921520;29;20197;-79
2022/06/18 04:11:56;;;;;;;1.95;1.80;;;;;;;22.52;35.23;96149.72;4951166;29;20205;-79
2022/06/18 04:14:22;;;;;;;2.08;1.40;;;;;;;23.31;33.78;96154.72;4934386;29;20170;-80
2022/06/18 04:16:47;;;;;;;1.80;1.70;;;;;;;23.66;33.16;96165.75;4920820;29;20613;-80
2022/06/18 04:19:12;;;;;;;1.70;1.60;;;;;;;23.76;33.38;96165.28;4935873;29;20201;-80
2022/06/18 04:21:37;;;;;;;1.45;1.35;;;;;;;24.65;31.42;96157.97;4937770;29;20184;-80
2022/06/18 04:24:03;;;;;;;1.65;1.20;;;;;;;24.52;31.41;96157.09;4919805;29;20213;-80
2022/06/18 04:26:28;;;;;;;2.83;1.63;;;;;;;25.44;30.76;96165.00;4936501;29;20188;-80
2022/06/18 04:28:53;;;;;;;1.73;1.50;;;;;;;25.46;30.13;96157.63;4936341;29;20670;-79
2022/06/18 04:31:19;;;;;;;2.28;1.50;;;;;;;26.58;29.08;96159.56;4935440;29;20197;-80
2022/06/18 04:33:44;;;;;;;1.75;1.30;;;;;;;26.49;29.49;96161.75;4918242;29;20185;-80
2022/06/18 04:36:29;;;;;;;2.35;1.50;;;;;;;26.91;28.18;96166.94;4952325;29;20182;-80
2022/06/18 04:38:54;;;;;;;2.38;1.60;;;;;;;27.49;28.36;96160.63;4920996;29;20193;-80
2022/06/18 04:41:20;;;;;;;1.50;1.40;;;;;;;27.74;27.91;96155.78;4921231;29;20217;-80
2022/06/18 04:43:45;;;;;;;4.60;1.45;;;;;;;28.65;26.87;96159.06;4919956;29;20206;-80
2022/06/18 04:46:10;;;;;;;1.40;1.30;;;;;;;28.39;27.01;96157.09;4936108;29;20209;-79
2022/06/18 04:48:36;;;;;;;1.58;1.48;;;;;;;28.57;27.02;96158.69;4934942;29;20197;-79
2022/06/18 04:51:01;;;;;;;5.18;1.50;;;;;;;28.62;27.32;96161.41;4939415;29;20215;-80
2022/06/18 04:53:26;;;;;;;2.38;1.55;;;;;;;28.96;26.37;96164.81;4940285;29;20630;-79
2022/06/18 04:55:51;;;;;;;1.63;1.50;;;;;;;29.33;26.03;96162.31;4940153;29;20544;-79
2022/06/18 04:58:17;;;;;;;1.60;1.50;;;;;;;30.23;25.24;96162.69;4940461;29;20193;-79
2022/06/18 05:00:42;;;;;;;2.85;1.55;;;;;;;31.09;24.06;96160.50;4940447;29;20166;-79
2022/06/18 05:03:15;;;;;;;1.60;1.45;;;;;;;30.21;26.45;96165.59;4939871;29;20224;-79
2022/06/18 05:05:40;;;;;;;1.42;1.25;;;;;;;30.65;25.04;96160.81;4923541;29;20188;-80
2022/06/18 05:08:06;;;;;;;1.75;1.55;;;;;;;30.99;25.64;96165.81;4939163;29;20556;-79
2022/06/18 05:10:31;;;;;;;1.40;1.30;;;;;;;31.08;24.39;96161.56;4925540;29;20178;-80
2022/06/18 05:12:56;;;;;;;1.65;1.55;;;;;;;31.06;24.66;96163.72;4941454;29;20188;-78
2022/06/18 05:15:22;;;;;;;1.55;1.45;;;;;;;31.01;25.32;96163.72;4926167;29;20190;-79
2022/06/18 05:17:47;;;;;;;2.17;1.48;;;;;;;31.22;24.54;96169.97;4933769;29;20189;-79
2022/06/18 05:20:19;;;;;;;2.88;1.60;;;;;;;31.64;24.08;96163.66;4957943;28;20201;-79
2022/06/18 05:22:44;;;;;;;2.45;1.55;;;;;;;32.30;24.26;96161.84;4941443;29;20265;-79
2022/06/18 05:25:10;;;;;;;1.98;1.30;;;;;;;32.70;23.19;96168.25;4942931;29;20617;-79
2022/06/18 05:27:36;;;;;;;1.92;1.58;;;;;;;33.47;22.65;96158.00;4927401;29;20178;-79
2022/06/18 05:30:04;;;;;;;4.80;1.50;;;;;;;33.62;23.56;96167.91;4959307;28;20198;-80
2022/06/18 05:32:29;;;;;;;3.42;1.52;;;;;;;33.49;22.54;96153.19;4929150;29;20846;-80
2022/06/18 05:34:54;;;;;;;2.38;1.75;;;;;;;33.85;22.88;96166.41;4963002;28;20188;-80
2022/06/18 05:37:22;;;;;;;2.95;1.50;;;;;;;34.25;22.38;96168.00;4964206;28;20185;-80
2022/06/18 05:39:47;;;;;;;1.52;1.42;;;;;;;34.29;21.83;96164.47;4961853;29;20207;-79
2022/06/18 05:42:13;;;;;;;5.85;2.42;;;;;;;34.23;21.85;96165.59;4959325;28;20263;-80
2022/06/18 05:44:38;;;;;;;1.60;1.42;;;;;;;33.69;22.56;96157.63;4957800;28;20200;-79
2022/06/18 05:47:15;;;;;;;2.00;1.60;;;;;;;33.99;22.02;96168.19;4961268;28;20212;-79
2022/06/18 05:49:41;;;;;;;5.25;1.77;;;;;;;33.95;21.92;96161.78;4957921;29;20218;-80
2022/06/18 05:52:07;;;;;;;4.88;1.83;;;;;;;34.18;21.97;96162.13;4959576;28;20205;-80
2022/06/18 05:54:32;;;;;;;2.05;1.50;;;;;;;34.20;21.08;96163.47;4942724;29;20221;-79
2022/06/18 05:56:59;;;;;;;6.47;1.83;;;;;;;34.71;19.94;96170.28;4960588;29;20591;-80
2022/06/18 05:59:24;;;;;;;2.08;1.60;;;;;;;34.87;20.01;96166.31;4960891;28;20232;-79
2022/06/18 06:01:49;;;;;;;4.63;1.90;;;;;;;34.04;20.51;96161.97;4940266;29;20178;-80
2022/06/18 06:04:16;;;;;;;3.03;1.70;;;;;;;34.25;20.84;96154.53;4955862;28;20194;-79
2022/06/18 06:06:42;;;;;;;1.95;1.67;;;;;;;34.30;20.71;96162.56;4958244;29;20173;-78
2022/06/18 06:09:11;;;;;;;2.75;1.52;;;;;;;35.60;19.41;96160.59;4955554;29;20211;-78
2022/06/18 06:11:38;;;;;;;5.35;1.83;;;;;;;35.00;19.82;96149.50;4955260;28;20181;-78
2022/06/18 06:14:03;;;;;;;3.75;1.85;;;;;;;34.98;19.38;96156.25;4954707;29;20169;-77
2022/06/18 06:16:29;;;;;;;1.60;1.50;;;;;;;34.48;19.02;96153.81;4940767;28;20184;-78
2022/06/18 06:18:55;;;;;;;2.08;1.60;;;;;;;34.87;18.97;96161.72;4957127;28;20204;-78
2022/06/18 06:21:20;;;;;;;2.67;1.58;;;;;;;36.14;17.99;96155.75;4956232;29;20268;-78
2022/06/18 06:23:46;;;;;;;3.08;1.63;;;;;;;34.78;18.40;96158.06;4940024;29;20292;-79
2022/06/18 06:26:23;;;;;;;1.75;1.42;;;;;;;34.71;18.81;96154.09;4941163;29;20184;-78
2022/06/18 06:28:49;;;;;;;1.58;1.20;;;;;;;34.94;18.18;96144.44;4956215;29;20291;-78
2022/06/18 06:31:14;;;;;;;2.00;1.55;;;;;;;35.64;17.53;96145.41;4956220;28;20205;-78
2022/06/18 06:33:40;;;;;;;4.53;1.55;;;;;;;35.34;17.94;96143.09;4956487;29;20177;-77
2022/06/18 06:36:05;;;;;;;3.22;1.75;;;;;;;35.06;18.12;96136.72;4956439;28;20201;-78
2022/06/18 06:38:32;;;;;;;3.10;1.70;;;;;;;35.69;17.65;96139.94;4956132;28;20193;-78
2022/06/18 06:40:58;;;;;;;3.55;1.75;;;;;;;36.00;16.82;96144.91;4955222;29;20179;-77
2022/06/18 06:43:23;;;;;;;3.35;1.65;;;;;;;35.09;17.52;96139.66;4939802;29;20201;-78
2022/06/18 06:45:49;;;;;;;3.42;1.60;;;;;;;35.07;17.82;96141.81;4954214;29;20194;-78
2022/06/18 06:48:14;;;;;;;2.42;1.30;;;;;;;36.36;17.25;96144.31;4954552;28;20288;-78
2022/06/18 06:50:40;;;;;;;3.15;1.50;;;;;;;37.17;15.61;96142.78;4938763;29;20220;-78
2022/06/18 06:53:06;;;;;;;2.67;1.70;;;;;;;37.03;16.25;96133.88;4941009;29;20181;-81
2022/06/18 06:58:18;;;;;;;2.97;1.70;;;;;;;36.29;16.28;96139.25;4959031;29;20212;-84
2022/06/18 07:00:47;;;;;;;2.13;1.70;;;;;;;36.55;17.15;96135.03;4937347;29;20811;-79
2022/06/18 07:03:15;;;;;;;2.00;1.50;;;;;;;35.63;17.86;96132.22;4939213;29;20228;-81
2022/06/18 07:05:40;;;;;;;1.70;1.60;;;;;;;34.69;18.14;96142.78;4936478;29;20178;-80
2022/06/18 07:08:06;;;;;;;10.73;1.95;;;;;;;34.68;18.60;96138.50;4923600;29;20188;-79
2022/06/18 07:10:31;;;;;;;2.35;1.50;;;;;;;36.09;17.05;96131.50;4936035;29;20184;-80
2022/06/18 07:12:57;;;;;;;1.35;1.20;;;;;;;37.21;15.90;96135.66;4936604;29;20177;-79
2022/06/18 07:15:22;;;;;;;1.55;1.40;;;;;;;38.37;14.45;96144.16;4920627;29;20186;-79
2022/06/18 07:17:47;;;;;;;1.45;1.35;;;;;;;37.56;15.69;96144.94;4935949;29;20208;-79
2022/06/18 07:20:16;;;;;;;3.08;1.80;;;;;;;34.80;18.75;96133.50;4935105;29;20697;-79
2022/06/18 07:22:41;;;;;;;2.25;2.03;;;;;;;35.47;19.42;96142.41;4936269;29;20248;-77
2022/06/18 07:25:08;;;;;;;2.03;1.83;;;;;;;36.06;20.77;96138.31;4919256;29;20206;-80
2022/06/18 07:27:34;;;;;;;2.60;2.38;;;;;;;36.37;20.05;96143.22;4937057;29;20190;-79
2022/06/18 07:29:59;;;;;;;5.15;2.53;;;;;;;35.83;20.84;96141.91;4934684;29;20202;-81
2022/06/18 07:32:25;;;;;;;3.70;2.30;;;;;;;33.67;23.37;96138.25;4935490;29;20661;-81
2022/06/18 07:34:52;;;;;;;2.33;1.70;;;;;;;35.13;21.59;96137.97;4935038;29;20229;-80
2022/06/18 07:37:18;;;;;;;2.50;2.10;;;;;;;35.36;21.00;96135.53;4937396;29;20178;-79
2022/06/18 07:39:43;;;;;;;2.92;2.22;;;;;;;34.81;21.58;96133.22;4935576;29;20208;-80
2022/06/18 07:42:10;;;;;;;2.92;2.03;;;;;;;34.49;21.89;96139.22;4934549;29;20177;-79
2022/06/18 07:44:35;;;;;;;3.28;1.73;;;;;;;34.21;21.94;96129.22;4936164;29;20280;-79
2022/06/18 07:47:02;;;;;;;2.83;1.77;;;;;;;33.42;22.90;96125.75;4936684;29;20178;-79
2022/06/18 07:49:27;;;;;;;2.47;2.20;;;;;;;33.02;23.91;96127.53;4951577;28;20637;-79
2022/06/18 07:51:53;;;;;;;2.33;2.10;;;;;;;33.18;23.64;96131.78;4934953;29;20209;-79
2022/06/18 07:54:19;;;;;;;3.78;1.80;;;;;;;33.14;23.38;96119.97;4919432;29;20166;-80
2022/06/18 07:56:44;;;;;;;3.17;1.90;;;;;;;33.02;23.40;96124.84;4919302;29;20182;-80
2022/06/18 07:59:09;;;;;;;2.47;2.28;;;;;;;32.61;23.77;96116.09;4935415;29;20709;-80
2022/06/18 08:01:35;;;;;;;4.05;2.38;;;;;;;32.88;23.89;96121.16;4935866;29;20289;-80
2022/06/18 08:04:00;;;;;;;2.45;1.98;;;;;;;33.95;22.89;96123.25;4934512;29;20220;-80
2022/06/18 08:06:26;;;;;;;8.05;2.05;;;;;;;32.95;22.71;96125.16;4944669;28;20188;-81
2022/06/18 08:08:51;;;;;;;3.60;1.75;;;;;;;33.13;22.59;96128.28;4953715;29;20260;-80
2022/06/18 08:11:18;;;;;;;3.17;2.00;;;;;;;32.10;24.60;96116.97;4938809;29;20669;-80
2022/06/18 08:13:43;;;;;;;1.88;1.70;;;;;;;32.34;23.67;96111.88;4952936;28;20177;-78
2022/06/18 08:16:11;;;;;;;1.88;1.77;;;;;;;32.70;23.54;96119.84;4953803;29;20188;-80
2022/06/18 08:18:36;;;;;;;3.60;2.05;;;;;;;32.64;24.16;96116.34;4953865;29;20204;-80
2022/06/18 08:21:13;;;;;;;4.22;2.00;;;;;;;32.48;23.61;96109.41;4937570;29;20177;-80
2022/06/18 08:23:38;;;;;;;2.05;1.83;;;;;;;32.82;22.96;96109.56;4954304;28;20241;-80
2022/06/18 08:26:06;;;;;;;1.67;1.58;;;;;;;32.08;22.86;96107.59;4953781;28;20177;-80
2022/06/18 08:28:32;;;;;;;1.73;1.60;;;;;;;32.69;23.40;96102.09;4953237;29;20201;-79
2022/06/18 08:31:00;;;;;;;3.78;2.17;;;;;;;32.93;24.20;96103.09;4936448;28;20231;-80
2022/06/18 08:33:28;;;;;;;2.95;1.80;;;;;;;32.86;23.41;96099.88;4936734;29;20196;-79
2022/06/18 08:35:53;;;;;;;1.80;1.70;;;;;;;32.24;22.61;96105.66;4935448;29;20181;-79
2022/06/18 08:38:19;;;;;;;2.08;1.70;;;;;;;31.39;24.20;96098.13;4951569;28;20180;-80
2022/06/18 08:41:42;;;;;;;2.03;1.90;;;;;;;30.45;25.45;96093.69;4950840;28;20647;-80
2022/06/18 08:44:41;;;;;;;4.13;1.77;;;;;;;31.32;23.99;96094.06;4919913;28;20229;-80
2022/06/18 08:47:27;;;;;;;1.60;1.50;;;;;;;31.37;23.21;96088.72;4951849;28;20185;-79
2022/06/18 08:50:11;;;;;;;1.30;1.20;;;;;;;31.18;23.60;96093.72;4952326;28;20209;-80
2022/06/18 08:52:55;;;;;;;2.45;1.63;;;;;;;31.92;22.74;96095.22;4953138;29;20245;-79
2022/06/18 08:55:43;;;;;;;2.25;1.58;;;;;;;31.48;21.49;96090.34;4953834;29;20184;-79
2022/06/18 08:58:18;;;;;;;2.05;1.40;;;;;;;31.41;21.28;96090.59;4955524;28;20181;-80
2022/06/18 09:01:05;;;;;;;1.27;1.20;;;;;;;31.79;20.43;96085.81;4938657;29;20173;-78
2022/06/18 09:04:08;;;;;;;1.42;1.20;;;;;;;31.17;21.30;96084.06;4955679;29;20247;-78
2022/06/18 09:06:46;;;;;;;0.95;0.95;;;;;;;31.35;20.70;96078.25;4954944;28;20201;-78
2022/06/18 09:09:17;;;;;;;1.02;0.75;;;;;;;31.92;18.69;96076.44;4955302;29;20201;-78
2022/06/18 09:12:10;;;;;;;2.05;0.80;;;;;;;31.80;15.66;96074.81;4957514;28;20173;-79
2022/06/18 09:14:48;;;;;;;0.82;0.80;;;;;;;32.27;18.24;96078.25;4955179;28;20170;-78
2022/06/18 09:17:29;;;;;;;2.72;1.30;;;;;;;32.31;19.50;96076.66;4954662;28;20180;-78
2022/06/18 09:20:06;;;;;;;1.40;1.27;;;;;;;32.20;21.24;96067.78;4955337;28;20205;-78
2022/06/18 09:22:33;;;;;;;2.47;1.20;;;;;;;31.86;19.63;96070.25;4939886;29;20665;-79
2022/06/18 09:25:04;;;;;;;2.28;1.25;;;;;;;32.14;19.00;96068.88;4938053;29;20209;-79
2022/06/18 09:27:40;;;;;;;2.22;1.17;;;;;;;32.26;18.23;96068.59;4938798;29;20178;-78
2022/06/18 09:30:09;;;;;;;1.33;1.20;;;;;;;32.20;22.15;96058.94;4939792;29;20231;-78
2022/06/18 09:32:43;;;;;;;4.28;1.38;;;;;;;32.65;20.49;96063.38;4956471;29;20200;-78
2022/06/18 09:35:21;;;;;;;2.30;1.15;;;;;;;32.59;21.28;96059.91;4954944;28;20173;-79
2022/06/18 09:37:54;;;;;;;2.80;1.55;;;;;;;32.80;22.18;96063.31;4959640;28;20251;-79
2022/06/18 09:40:27;;;;;;;1.52;1.40;;;;;;;33.04;22.42;96060.00;4958286;28;20201;-79
2022/06/18 09:43:01;;;;;;;1.88;1.60;;;;;;;33.07;20.76;96072.91;4958059;28;20169;-79
2022/06/18 09:45:30;;;;;;;1.63;1.48;;;;;;;32.64;21.25;96065.28;4943906;29;20528;-79
2022/06/18 09:47:55;;;;;;;1.50;1.40;;;;;;;32.63;20.54;96069.03;4942969;28;20181;-79
2022/06/18 09:50:29;;;;;;;1.98;1.23;;;;;;;32.21;19.21;96058.66;4958170;29;20216;-79
2022/06/18 09:53:19;;;;;;;4.43;1.80;;;;;;;32.44;22.19;96068.03;4943073;29;20231;-79
2022/06/18 09:55:48;;;;;;;3.53;1.50;;;;;;;32.90;20.75;96059.81;4942895;29;20229;-79
2022/06/18 09:58:20;;;;;;;4.90;1.40;;;;;;;33.19;20.88;96062.59;4958131;28;20777;-79
2022/06/18 10:00:45;;;;;;;3.25;1.60;;;;;;;32.81;20.81;96064.13;4942754;29;20225;-79
2022/06/18 10:08:51;;;;;;;2.05;1.83;;;;;;;32.86;21.76;96056.84;4956530;29;20220;-79
2022/06/18 10:11:17;;;;;;;2.38;1.65;;;;;;;33.37;21.56;96048.53;4938916;29;20189;-79
2022/06/18 10:13:46;;;;;;;4.07;1.48;;;;;;;33.51;20.25;96048.69;4955806;28;20264;-78
2022/06/18 10:16:29;;;;;;;3.13;1.63;;;;;;;33.48;19.41;96055.47;4939037;29;20177;-78
2022/06/18 10:19:09;;;;;;;5.70;1.88;;;;;;;33.26;20.60;96044.25;4958203;28;20197;-77
2022/06/18 10:21:42;;;;;;;3.22;1.40;;;;;;;33.25;21.06;96034.59;4977556;28;20173;-79
2022/06/18 10:24:14;;;;;;;2.17;1.67;;;;;;;33.70;21.47;96029.97;4973712;29;20197;-79
2022/06/18 10:26:57;;;;;;;3.90;1.50;;;;;;;33.68;20.30;96032.16;4958450;29;20188;-77
2022/06/18 10:29:28;;;;;;;7.38;1.60;;;;;;;33.51;19.93;96013.69;4977178;28;20565;-77
2022/06/18 10:32:17;;;;;;;3.85;1.45;;;;;;;33.53;20.06;96011.53;4977850;28;20194;-78
2022/06/18 10:34:51;;;;;;;2.40;1.52;;;;;;;33.79;20.17;96014.81;4963101;28;20189;-79
2022/06/18 10:37:33;;;;;;;5.70;2.63;;;;;;;33.73;19.68;96013.22;4954925;29;20247;-80
2022/06/18 10:40:25;;;;;;;3.83;1.70;;;;;;;33.62;20.22;96007.13;4950869;29;20208;-77
2022/06/18 10:43:28;;;;;;;2.97;1.67;;;;;;;33.31;20.14;96003.88;4936093;29;20553;-79
2022/06/18 10:46:14;;;;;;;4.35;1.90;;;;;;;33.59;19.97;96006.91;4940079;29;20184;-80
2022/06/18 10:48:51;;;;;;;2.70;1.60;;;;;;;33.73;19.96;96003.25;4957346;28;20510;-80
2022/06/18 10:51:21;;;;;;;5.50;1.92;;;;;;;33.50;19.43;96004.81;4939599;29;20713;-79
2022/06/18 10:54:03;;;;;;;3.75;1.98;;;;;;;33.25;19.83;95997.72;4957413;28;20610;-77
2022/06/18 10:56:33;;;;;;;3.90;1.60;;;;;;;33.46;20.14;95993.00;4941173;29;20195;-78
2022/06/18 10:59:03;;;;;;;2.17;1.58;;;;;;;33.37;19.03;95993.88;4953679;28;20212;-78
2022/06/18 11:01:34;;;;;;;6.32;1.90;;;;;;;33.75;19.11;95992.22;4955819;29;20177;-78
2022/06/18 11:04:23;;;;;;;3.08;1.55;;;;;;;33.59;20.09;95988.06;4938214;29;20205;-78
2022/06/18 11:06:53;;;;;;;5.50;1.83;;;;;;;33.78;20.60;95983.56;4939740;29;20588;-80
2022/06/18 11:09:44;;;;;;;4.90;1.73;;;;;;;33.88;20.05;95980.81;4923415;29;20205;-79
2022/06/18 11:12:28;;;;;;;5.90;1.83;;;;;;;33.10;19.37;95976.28;4954656;29;20595;-79
2022/06/18 11:14:55;;;;;;;7.13;1.88;;;;;;;33.71;19.38;95980.41;4954442;29;20545;-78
2022/06/18 11:17:25;;;;;;;5.68;1.90;;;;;;;33.96;18.71;95976.69;4954698;29;20720;-79
2022/06/18 11:19:51;;;;;;;5.70;1.77;;;;;;;33.73;19.31;95973.63;4953770;28;20207;-78
2022/06/18 11:22:22;;;;;;;5.40;1.90;;;;;;;34.09;17.21;95974.09;4954175;29;20177;-78
2022/06/18 11:25:00;;;;;;;6.47;1.80;;;;;;;33.93;18.17;95963.78;4937478;29;20209;-79
2022/06/18 11:27:30;;;;;;;7.82;2.20;;;;;;;34.13;17.58;95973.53;4922402;29;20687;-78
2022/06/18 11:29:56;;;;;;;5.43;1.98;;;;;;;34.25;17.39;95971.22;4953695;29;20193;-78
2022/06/18 11:32:35;;;;;;;6.93;2.08;;;;;;;34.45;17.40;95971.00;4953454;29;20185;-78
2022/06/18 11:35:19;;;;;;;12.43;2.60;;;;;;;34.49;17.74;95963.97;4938698;29;20169;-78
2022/06/18 11:37:56;;;;;;;8.38;2.10;;;;;;;34.26;17.00;95962.84;4940437;29;20237;-79
2022/06/18 11:40:25;;;;;;;8.23;1.92;;;;;;;34.62;16.74;95957.84;4956570;29;20196;-79
2022/06/18 11:42:56;;;;;;;11.15;2.55;;;;;;;34.20;16.46;95955.13;4941837;29;20267;-82
2022/06/18 11:45:30;;;;;;;9.68;2.55;;;;;;;34.71;16.45;95957.19;4956506;29;20189;-78
2022/06/18 11:48:34;;;;;;;9.52;3.20;;;;;;;34.69;14.99;95951.28;4956071;29;20199;-80
2022/06/18 11:51:07;;;;;;;11.70;2.75;;;;;;;34.41;16.32;95940.34;4959552;29;20180;-80
2022/06/18 11:53:54;;;;;;;6.60;2.38;;;;;;;34.90;15.60;95939.97;4941051;29;20184;-83
2022/06/18 11:56:28;;;;;;;7.97;2.38;;;;;;;34.73;17.20;95944.25;4954764;29;20192;-82
2022/06/18 11:59:02;;;;;;;12.15;2.38;;;;;;;35.02;17.13;95941.41;4938509;29;20547;-82
2022/06/18 12:01:35;;;;;;;9.70;2.38;;;;;;;35.07;16.26;95938.63;4938846;29;20189;-83